createdAt,value
2023-02-08T00:02:10.400Z,-0.50
2023-02-08T00:04:40.164Z,-0.60
2023-02-08T00:07:09.254Z,-0.50
2023-02-08T00:09:35.972Z,-0.50
2023-02-08T00:12:02.809Z,-0.50
2023-02-08T00:14:29.642Z,-0.60
2023-02-08T00:16:56.434Z,-0.60
2023-02-08T00:19:23.103Z,-0.60
2023-02-08T00:21:49.871Z,-0.60
2023-02-08T00:24:16.640Z,-0.60
2023-02-08T00:26:45.755Z,-0.60
2023-02-08T00:29:15.063Z,-0.70
2023-02-08T00:31:44.455Z,-0.70
2023-02-08T00:34:11.290Z,-0.70
2023-02-08T00:36:38.084Z,-0.70
2023-02-08T00:39:07.324Z,-0.70
2023-02-08T00:41:34.063Z,-0.70
2023-02-08T00:44:02.882Z,-0.70
2023-02-08T00:46:29.737Z,-0.70
2023-02-08T00:48:56.481Z,-0.80
2023-02-08T00:51:23.267Z,-0.70
2023-02-08T00:53:49.972Z,-0.70
2023-02-08T00:56:16.788Z,-0.80
2023-02-08T00:58:43.850Z,-0.80
2023-02-08T01:01:10.976Z,-0.80
2023-02-08T01:03:38.542Z,-0.80
2023-02-08T01:06:06.422Z,-0.80
2023-02-08T01:08:33.237Z,-0.80
2023-02-08T01:11:04.451Z,-0.80
2023-02-08T01:13:31.305Z,-0.80
2023-02-08T01:16:05.534Z,-0.80
2023-02-08T01:18:32.367Z,-0.80
2023-02-08T01:21:06.651Z,-0.80
2023-02-08T01:23:33.523Z,-0.80
2023-02-08T01:26:02.415Z,-0.90
2023-02-08T01:28:29.224Z,-0.80
2023-02-08T01:30:56.036Z,-0.90
2023-02-08T01:33:22.812Z,-0.90
2023-02-08T01:35:50.413Z,-0.90
2023-02-08T01:38:17.278Z,-0.90
2023-02-08T01:40:43.983Z,-0.80
2023-02-08T01:43:31.303Z,-0.90
2023-02-08T01:45:58.442Z,-0.90
2023-02-08T01:48:26.946Z,-0.90
2023-02-08T01:50:54.117Z,-0.90
2023-02-08T01:53:22.679Z,-0.90
2023-02-08T01:55:51.503Z,-0.80
2023-02-08T01:58:19.062Z,-0.90
2023-02-08T02:00:46.553Z,-0.90
2023-02-08T02:03:15.912Z,-0.80
2023-02-08T02:05:43.864Z,-0.80
2023-02-08T02:08:13.304Z,-0.80
2023-02-08T02:10:41.731Z,-0.80
2023-02-08T02:13:18.591Z,-0.80
2023-02-08T02:15:47.778Z,-0.80
2023-02-08T02:18:18.175Z,-0.80
2023-02-08T02:21:05.180Z,-0.80
2023-02-08T02:23:50.862Z,-0.80
2023-02-08T02:26:38.760Z,-0.80
2023-02-08T02:29:05.479Z,-0.80
2023-02-08T02:31:36.804Z,-0.80
2023-02-08T02:34:06.377Z,-0.90
2023-02-08T02:36:38.790Z,-0.90
2023-02-08T02:39:05.560Z,-0.90
2023-02-08T02:41:50.889Z,-1.00
2023-02-08T02:44:38.825Z,-1.00
2023-02-08T02:47:25.859Z,-1.00
2023-02-08T02:50:01.594Z,-1.00
2023-02-08T02:52:34.257Z,-1.00
2023-02-08T02:55:07.724Z,-1.00
2023-02-08T02:57:35.042Z,-1.00
2023-02-08T03:00:09.326Z,-1.10
2023-02-08T03:02:38.447Z,-1.10
2023-02-08T03:05:07.037Z,-1.10
2023-02-08T03:07:59.088Z,-1.10
2023-02-08T03:10:49.104Z,-1.20
2023-02-08T03:13:25.073Z,-1.20
2023-02-08T03:15:51.816Z,-1.20
2023-02-08T03:18:30.527Z,-1.20
2023-02-08T03:21:10.619Z,-1.20
2023-02-08T03:23:40.583Z,-1.20
2023-02-08T03:26:19.091Z,-1.30
2023-02-08T03:28:56.773Z,-1.20
2023-02-08T03:31:33.443Z,-1.20
2023-02-08T03:34:08.377Z,-1.20
2023-02-08T03:36:40.770Z,-1.20
2023-02-08T03:39:13.466Z,-1.20
2023-02-08T03:41:45.032Z,-1.30
2023-02-08T03:44:11.745Z,-1.30
2023-02-08T03:46:42.398Z,-1.30
2023-02-08T03:49:13.726Z,-1.30
2023-02-08T03:51:40.956Z,-1.30
2023-02-08T03:54:11.073Z,-1.30
2023-02-08T03:56:46.609Z,-1.30
2023-02-08T03:59:20.656Z,-1.30
2023-02-08T04:01:49.934Z,-1.30
2023-02-08T04:04:18.744Z,-1.30
2023-02-08T04:06:48.053Z,-1.30
2023-02-08T04:09:14.856Z,-1.30
2023-02-08T04:11:41.557Z,-1.30
2023-02-08T04:14:10.804Z,-1.30
2023-02-08T04:16:42.435Z,-1.30
2023-02-08T04:19:09.209Z,-1.30
2023-02-08T04:21:35.942Z,-1.30
2023-02-08T04:24:02.694Z,-1.30
2023-02-08T04:26:29.377Z,-1.40
2023-02-08T04:28:58.593Z,-1.30
2023-02-08T04:31:25.453Z,-1.30
2023-02-08T04:33:52.298Z,-1.30
2023-02-08T04:36:19.015Z,-1.40
2023-02-08T04:38:45.802Z,-1.40
2023-02-08T04:41:12.512Z,-1.40
2023-02-08T04:43:39.248Z,-1.40
2023-02-08T04:46:08.597Z,-1.40
2023-02-08T04:48:35.379Z,-1.40
2023-02-08T04:51:02.432Z,-1.40
2023-02-08T04:53:31.390Z,-1.40
2023-02-08T04:55:58.108Z,-1.40
2023-02-08T04:58:24.936Z,-1.40
2023-02-08T05:00:56.640Z,-1.50
2023-02-08T05:03:23.475Z,-1.40
2023-02-08T05:06:00.099Z,-1.40
2023-02-08T05:08:27.003Z,-1.40
2023-02-08T05:10:53.855Z,-1.40
2023-02-08T05:13:20.620Z,-1.50
2023-02-08T05:15:47.422Z,-1.50
2023-02-08T05:18:14.258Z,-1.50
2023-02-08T05:20:41.249Z,-1.50
2023-02-08T05:23:08.163Z,-1.50
2023-02-08T05:25:34.958Z,-1.50
2023-02-08T05:28:01.686Z,-1.50
2023-02-08T05:30:31.511Z,-1.50
2023-02-08T05:32:58.365Z,-1.50
2023-02-08T05:35:25.062Z,-1.50
2023-02-08T05:37:51.854Z,-1.50
2023-02-08T05:40:18.729Z,-1.50
2023-02-08T05:42:48.025Z,-1.50
2023-02-08T05:45:17.342Z,-1.50
2023-02-08T05:47:44.172Z,-1.50
2023-02-08T05:50:10.978Z,-1.50
2023-02-08T05:52:37.786Z,-1.60
2023-02-08T05:55:07.584Z,-1.60
2023-02-08T05:57:35.793Z,-1.60
2023-02-08T06:00:04.541Z,-1.60
2023-02-08T06:02:32.091Z,-1.60
2023-02-08T06:05:01.516Z,-1.60
2023-02-08T06:07:29.702Z,-1.60
2023-02-08T06:09:56.459Z,-1.60
2023-02-08T06:12:23.234Z,-1.70
2023-02-08T06:14:49.976Z,-1.70
2023-02-08T06:17:16.693Z,-1.70
2023-02-08T06:19:45.839Z,-1.70
2023-02-08T06:22:15.135Z,-1.70
2023-02-08T06:24:42.070Z,-1.70
2023-02-08T06:27:11.223Z,-1.70
2023-02-08T06:29:38.024Z,-1.70
2023-02-08T06:32:05.041Z,-1.70
2023-02-08T06:34:32.100Z,-1.70
2023-02-08T06:37:02.080Z,-1.70
2023-02-08T06:39:29.707Z,-1.70
2023-02-08T06:41:58.968Z,-1.70
2023-02-08T06:44:25.738Z,-1.70
2023-02-08T06:46:52.926Z,-1.70
2023-02-08T06:49:19.801Z,-1.70
2023-02-08T06:51:46.470Z,-1.60
2023-02-08T06:54:17.961Z,-1.70
2023-02-08T06:56:44.817Z,-1.70
2023-02-08T06:59:11.532Z,-1.70
2023-02-08T07:01:38.528Z,-1.60
2023-02-08T07:04:07.470Z,-1.70
2023-02-08T07:06:39.127Z,-1.70
2023-02-08T07:09:09.177Z,-1.60
2023-02-08T07:11:38.405Z,-1.60
2023-02-08T07:14:05.336Z,-1.60
2023-02-08T07:16:32.098Z,-1.50
2023-02-08T07:18:58.926Z,-1.50
2023-02-08T07:21:25.648Z,-1.50
2023-02-08T07:23:52.433Z,-1.50
2023-02-08T07:26:19.252Z,-1.50
2023-02-08T07:28:46.070Z,-1.50
2023-02-08T07:31:14.129Z,-1.50
2023-02-08T07:33:41.042Z,-1.50
2023-02-08T07:36:08.922Z,-1.50
2023-02-08T07:38:36.356Z,-1.50
2023-02-08T07:41:10.733Z,-1.50
2023-02-08T07:43:41.063Z,-1.50
2023-02-08T07:46:12.377Z,-1.50
2023-02-08T07:48:40.469Z,-1.40
2023-02-08T07:51:08.131Z,-1.40
2023-02-08T07:53:37.712Z,-1.40
2023-02-08T07:56:04.629Z,-1.40
2023-02-08T07:58:31.376Z,-1.30
2023-02-08T08:00:58.769Z,-1.30
2023-02-08T08:03:25.823Z,-1.20
2023-02-08T08:05:54.902Z,-1.10
2023-02-08T08:08:21.832Z,-1.10
2023-02-08T08:10:49.474Z,-1.00
2023-02-08T08:13:18.920Z,-1.10
2023-02-08T08:15:46.796Z,-1.00
2023-02-08T08:18:13.499Z,-0.90
2023-02-08T08:20:40.409Z,-0.90
2023-02-08T08:23:07.334Z,-0.90
2023-02-08T08:25:34.060Z,-0.90
2023-02-08T08:28:03.673Z,-0.80
2023-02-08T08:30:30.604Z,-0.70
2023-02-08T08:33:00.048Z,-0.70
2023-02-08T08:35:26.857Z,-0.60
2023-02-08T08:37:53.612Z,-0.60
2023-02-08T08:40:20.370Z,-0.60
2023-02-08T08:42:47.044Z,-0.60
2023-02-08T08:45:13.844Z,-0.60
2023-02-08T08:47:40.554Z,-0.50
2023-02-08T08:50:07.654Z,-0.50
2023-02-08T08:52:36.699Z,-0.40
2023-02-08T08:55:03.503Z,-0.30
2023-02-08T08:57:32.643Z,-0.30
2023-02-08T08:59:59.476Z,-0.20
2023-02-08T09:02:26.276Z,-0.20
2023-02-08T09:04:53.113Z,-0.30
2023-02-08T09:07:19.855Z,-0.30
2023-02-08T09:09:48.022Z,-0.30
2023-02-08T09:12:15.737Z,-0.30
2023-02-08T09:14:44.684Z,-0.20
2023-02-08T09:17:12.126Z,-0.20
2023-02-08T09:19:39.087Z,-0.10
2023-02-08T09:22:06.564Z,-0.10
2023-02-08T09:24:33.543Z,-0.10
2023-02-08T09:27:00.512Z,0.00
2023-02-08T09:29:29.589Z,0.00
2023-02-08T09:31:56.538Z,0.00
2023-02-08T09:34:23.322Z,0.00
2023-02-08T09:36:50.312Z,0.00
2023-02-08T09:39:19.102Z,0.10
2023-02-08T09:41:58.067Z,0.10
2023-02-08T09:44:43.234Z,0.10
2023-02-08T09:47:14.102Z,0.20
2023-02-08T09:49:47.324Z,0.30
2023-02-08T09:52:16.401Z,0.30
2023-02-08T09:54:59.331Z,0.30
2023-02-08T09:57:29.318Z,0.30
2023-02-08T10:00:01.091Z,0.40
2023-02-08T10:02:34.508Z,0.40
2023-02-08T10:05:10.564Z,0.50
2023-02-08T10:07:39.626Z,0.60
2023-02-08T10:10:08.471Z,0.60
2023-02-08T10:12:35.174Z,0.60
2023-02-08T10:15:22.239Z,0.70
2023-02-08T10:18:11.679Z,0.60
2023-02-08T10:21:04.635Z,0.60
2023-02-08T10:23:37.568Z,0.70
2023-02-08T10:26:14.588Z,0.70
2023-02-08T10:28:52.448Z,0.70
2023-02-08T10:31:30.392Z,0.80
2023-02-08T10:34:08.612Z,0.80
2023-02-08T10:36:41.775Z,0.80
2023-02-08T10:39:22.665Z,0.90
2023-02-08T10:41:51.093Z,0.90
2023-02-08T10:44:43.667Z,0.90
2023-02-08T10:47:24.142Z,0.90
2023-02-08T10:49:55.149Z,0.90
2023-02-08T10:52:24.300Z,0.90
2023-02-08T10:54:51.166Z,1.00
2023-02-08T10:57:20.041Z,0.90
2023-02-08T10:59:56.180Z,1.00
2023-02-08T11:02:33.104Z,1.00
2023-02-08T11:05:03.151Z,1.00
2023-02-08T11:07:31.469Z,1.10
2023-02-08T11:10:25.262Z,1.10
2023-02-08T11:13:05.628Z,1.20
2023-02-08T11:15:38.886Z,1.30
2023-02-08T11:18:07.733Z,1.30
2023-02-08T11:20:39.482Z,1.30
2023-02-08T11:23:26.459Z,1.30
2023-02-08T11:25:54.718Z,1.30
2023-02-08T11:28:30.024Z,1.30
2023-02-08T11:31:03.224Z,1.30
2023-02-08T11:33:30.444Z,1.40
2023-02-08T11:36:06.458Z,1.40
2023-02-08T11:38:35.755Z,1.30
2023-02-08T11:41:05.640Z,1.30
2023-02-08T11:43:37.414Z,1.40
2023-02-08T11:46:05.610Z,1.40
2023-02-08T11:48:42.292Z,1.50
2023-02-08T11:51:13.227Z,1.50
2023-02-08T11:53:40.805Z,1.50
2023-02-08T11:56:18.621Z,1.50
2023-02-08T11:59:14.521Z,1.50
2023-02-08T12:01:42.869Z,1.50
2023-02-08T12:04:17.940Z,1.60
2023-02-08T12:07:06.425Z,1.60
2023-02-08T12:09:33.282Z,1.60
2023-02-08T12:12:27.358Z,1.70
2023-02-08T12:15:57.917Z,1.70
2023-02-08T12:18:28.627Z,1.70
2023-02-08T12:21:08.603Z,1.80
2023-02-08T12:23:49.288Z,1.80
2023-02-08T12:26:22.520Z,1.80
2023-02-08T12:29:04.490Z,1.80
2023-02-08T12:32:23.910Z,1.90
2023-02-08T12:34:56.438Z,1.90
2023-02-08T12:37:58.470Z,1.90
2023-02-08T12:41:00.081Z,1.90
2023-02-08T12:43:32.796Z,1.90
2023-02-08T12:46:18.091Z,2.00
2023-02-08T12:49:09.496Z,2.00
2023-02-08T12:51:39.084Z,2.00
2023-02-08T12:54:24.936Z,2.00
2023-02-08T12:57:02.174Z,2.10
2023-02-08T12:59:32.632Z,2.10
2023-02-08T13:02:04.337Z,2.10
2023-02-08T13:04:41.021Z,2.10
2023-02-08T13:07:22.243Z,2.20
2023-02-08T13:10:17.128Z,2.20
2023-02-08T13:12:57.240Z,2.20
2023-02-08T13:15:35.666Z,2.20
2023-02-08T13:18:13.295Z,2.20
2023-02-08T13:20:58.020Z,2.30
2023-02-08T13:23:30.845Z,2.30
2023-02-08T13:26:05.884Z,2.30
2023-02-08T13:28:37.016Z,2.30
2023-02-08T13:31:11.585Z,2.30
2023-02-08T13:34:00.806Z,2.30
2023-02-08T13:36:35.823Z,2.30
2023-02-08T13:39:11.977Z,2.30
2023-02-08T13:41:50.842Z,2.30
2023-02-08T13:44:29.467Z,2.30
2023-02-08T13:46:57.153Z,2.40
2023-02-08T13:49:42.872Z,2.40
2023-02-08T13:52:11.524Z,2.40
2023-02-08T13:54:41.435Z,2.40
2023-02-08T13:57:55.509Z,2.40
2023-02-08T14:00:33.295Z,2.40
2023-02-08T14:03:15.223Z,2.40
2023-02-08T14:05:50.733Z,2.40
2023-02-08T14:08:44.027Z,2.40
2023-02-08T14:11:16.249Z,2.40
2023-02-08T14:13:48.690Z,2.40
2023-02-08T14:16:38.824Z,2.50
2023-02-08T14:19:23.053Z,2.40
2023-02-08T14:22:10.139Z,2.50
2023-02-08T14:24:48.016Z,2.50
2023-02-08T14:27:30.123Z,2.50
2023-02-08T14:30:11.413Z,2.50
2023-02-08T14:32:40.513Z,2.50
2023-02-08T14:35:13.241Z,2.50
2023-02-08T14:37:41.020Z,2.50
2023-02-08T14:40:16.790Z,2.40
2023-02-08T14:42:55.091Z,2.40
2023-02-08T14:45:37.471Z,2.50
2023-02-08T14:48:26.009Z,2.40
2023-02-08T14:50:58.107Z,2.40
2023-02-08T14:53:34.362Z,2.40
2023-02-08T14:56:10.255Z,2.40
2023-02-08T14:58:42.484Z,2.40
2023-02-08T15:01:27.494Z,2.40
2023-02-08T15:04:02.307Z,2.40
2023-02-08T15:07:12.536Z,2.40
2023-02-08T15:09:43.937Z,2.30
2023-02-08T15:12:35.859Z,2.50
2023-02-08T15:15:04.615Z,2.40
2023-02-08T15:17:41.023Z,2.30
2023-02-08T15:20:23.163Z,2.30
2023-02-08T15:23:05.592Z,2.30
2023-02-08T15:25:37.340Z,2.30
2023-02-08T15:28:18.146Z,2.30
2023-02-08T15:31:26.742Z,2.30
2023-02-08T15:33:54.397Z,2.20
2023-02-08T15:36:34.242Z,2.20
2023-02-08T15:39:04.575Z,2.20
2023-02-08T15:41:38.103Z,2.20
2023-02-08T15:44:29.004Z,2.10
2023-02-08T15:47:01.549Z,2.10
2023-02-08T15:49:53.697Z,2.10
2023-02-08T15:52:23.491Z,2.10
2023-02-08T15:54:54.859Z,2.00
2023-02-08T15:57:47.437Z,2.00
2023-02-08T16:00:30.166Z,2.00
2023-02-08T16:03:02.787Z,2.00
2023-02-08T16:05:31.898Z,1.90
2023-02-08T16:08:00.397Z,1.90
2023-02-08T16:10:46.681Z,1.90
2023-02-08T16:13:38.521Z,1.90
2023-02-08T16:16:21.829Z,1.80
2023-02-08T16:18:52.370Z,1.80
2023-02-08T16:21:24.846Z,1.80
2023-02-08T16:24:20.731Z,1.70
2023-02-08T16:27:15.082Z,1.70
2023-02-08T16:29:47.473Z,1.70
2023-02-08T16:32:28.152Z,1.70
2023-02-08T16:34:55.382Z,1.70
2023-02-08T16:37:34.266Z,1.60
2023-02-08T16:40:04.235Z,1.60
2023-02-08T16:42:36.834Z,1.60
2023-02-08T16:45:20.116Z,1.60
2023-02-08T16:47:58.414Z,1.50
2023-02-08T16:50:28.413Z,1.50
2023-02-08T16:53:04.726Z,1.40
2023-02-08T16:55:33.914Z,1.40
2023-02-08T16:58:00.776Z,1.40
2023-02-08T17:00:30.629Z,1.40
2023-02-08T17:02:57.824Z,1.40
2023-02-08T17:05:28.785Z,1.40
2023-02-08T17:07:55.992Z,1.30
2023-02-08T17:10:29.218Z,1.30
2023-02-08T17:13:09.919Z,1.30
2023-02-08T17:15:47.858Z,1.30
2023-02-08T17:18:17.365Z,1.30
2023-02-08T17:20:44.479Z,1.30
2023-02-08T17:23:15.395Z,1.20
2023-02-08T17:25:43.343Z,1.20
2023-02-08T17:28:20.441Z,1.20
2023-02-08T17:30:48.958Z,1.20
2023-02-08T17:33:18.524Z,1.10
2023-02-08T17:35:51.178Z,1.20
2023-02-08T17:38:21.740Z,1.20
2023-02-08T17:40:48.951Z,1.20
2023-02-08T17:43:16.092Z,1.10
2023-02-08T17:45:44.001Z,1.20
2023-02-08T17:48:13.485Z,1.10
2023-02-08T17:50:43.051Z,1.10
2023-02-08T17:53:12.727Z,1.10
2023-02-08T17:55:42.647Z,1.10
2023-02-08T17:58:09.895Z,1.00
2023-02-08T18:00:37.121Z,1.00
2023-02-08T18:03:04.281Z,1.00
2023-02-08T18:05:31.214Z,1.00
2023-02-08T18:07:58.122Z,1.00
2023-02-08T18:10:25.902Z,1.00
2023-02-08T18:12:52.869Z,0.90
2023-02-08T18:15:21.725Z,0.90
2023-02-08T18:17:50.309Z,0.90
2023-02-08T18:20:18.179Z,0.90
2023-02-08T18:22:49.802Z,0.90
2023-02-08T18:25:17.585Z,0.90
2023-02-08T18:27:46.659Z,0.90
2023-02-08T18:30:15.937Z,0.90
2023-02-08T18:32:42.851Z,0.90
2023-02-08T18:35:12.304Z,0.90
2023-02-08T18:37:39.801Z,0.80
2023-02-08T18:40:09.476Z,0.80
2023-02-08T18:42:36.602Z,0.80
2023-02-08T18:45:04.641Z,0.80
2023-02-08T18:47:31.527Z,0.80
2023-02-08T18:49:58.287Z,0.80
2023-02-08T18:52:25.229Z,0.80
2023-02-08T18:54:51.991Z,0.70
2023-02-08T18:57:18.860Z,0.80
2023-02-08T18:59:45.585Z,0.70
2023-02-08T19:02:19.555Z,0.70
2023-02-08T19:04:46.455Z,0.70
2023-02-08T19:07:16.557Z,0.70
2023-02-08T19:09:44.045Z,0.70
2023-02-08T19:12:11.068Z,0.60
2023-02-08T19:14:38.114Z,0.60
2023-02-08T19:17:07.248Z,0.60
2023-02-08T19:19:36.630Z,0.60
2023-02-08T19:22:03.548Z,0.60
2023-02-08T19:24:30.571Z,0.60
2023-02-08T19:26:57.469Z,0.60
2023-02-08T19:29:26.928Z,0.50
2023-02-08T19:31:58.269Z,0.50
2023-02-08T19:34:25.657Z,0.50
2023-02-08T19:36:54.220Z,0.40
2023-02-08T19:39:24.862Z,0.40
2023-02-08T19:41:54.953Z,0.40
2023-02-08T19:44:22.587Z,0.40
2023-02-08T19:46:52.855Z,0.40
2023-02-08T19:49:20.621Z,0.40
2023-02-08T19:51:47.909Z,0.30
2023-02-08T19:54:17.134Z,0.30
2023-02-08T19:56:50.267Z,0.30
2023-02-08T19:59:27.249Z,0.30
2023-02-08T20:01:57.109Z,0.30
2023-02-08T20:04:26.566Z,0.20
2023-02-08T20:06:57.953Z,0.30
2023-02-08T20:09:27.203Z,0.20
2023-02-08T20:11:57.272Z,0.20
2023-02-08T20:14:26.424Z,0.20
2023-02-08T20:16:53.881Z,0.20
2023-02-08T20:19:20.965Z,0.20
2023-02-08T20:21:47.846Z,0.20
2023-02-08T20:24:15.605Z,0.20
2023-02-08T20:26:45.118Z,0.10
2023-02-08T20:29:14.444Z,0.10
2023-02-08T20:31:44.470Z,0.10
2023-02-08T20:34:18.638Z,0.10
2023-02-08T20:37:06.258Z,0.10
2023-02-08T20:39:34.229Z,0.10
2023-02-08T20:42:01.290Z,0.10
2023-02-08T20:44:31.523Z,0.10
2023-02-08T20:46:58.648Z,0.10
2023-02-08T20:49:26.896Z,0.10
2023-02-08T20:51:54.768Z,0.00
2023-02-08T20:54:24.483Z,0.00
2023-02-08T20:56:53.354Z,0.00
2023-02-08T20:59:22.695Z,0.00
2023-02-08T21:01:52.230Z,0.00
2023-02-08T21:04:23.217Z,0.00
2023-02-08T21:06:51.330Z,-0.10
2023-02-08T21:09:21.499Z,-0.10
2023-02-08T21:11:51.502Z,-0.10
2023-02-08T21:14:21.475Z,-0.10
2023-02-08T21:16:53.165Z,-0.10
2023-02-08T21:19:20.848Z,-0.20
2023-02-08T21:21:55.038Z,-0.20
2023-02-08T21:24:24.985Z,-0.20
2023-02-08T21:26:56.530Z,-0.20
2023-02-08T21:29:24.231Z,-0.10
2023-02-08T21:31:54.015Z,-0.20
2023-02-08T21:34:24.623Z,-0.20
2023-02-08T21:36:51.584Z,-0.20
2023-02-08T21:39:18.793Z,-0.20
2023-02-08T21:41:45.770Z,-0.20
2023-02-08T21:44:15.285Z,-0.20
2023-02-08T21:46:42.241Z,-0.20
2023-02-08T21:49:30.028Z,-0.20
2023-02-08T21:52:15.300Z,-0.30
2023-02-08T21:54:42.354Z,-0.30
2023-02-08T21:57:27.982Z,-0.30
2023-02-08T22:00:01.042Z,-0.30
2023-02-08T22:02:29.888Z,-0.30
2023-02-08T22:04:58.902Z,-0.30
2023-02-08T22:07:27.093Z,-0.40
2023-02-08T22:09:54.344Z,-0.40
2023-02-08T22:12:22.654Z,-0.30
2023-02-08T22:14:49.817Z,-0.40
2023-02-08T22:17:16.941Z,-0.40
2023-02-08T22:19:46.483Z,-0.40
2023-02-08T22:22:15.637Z,-0.40
2023-02-08T22:24:43.014Z,-0.40
2023-02-08T22:27:11.210Z,-0.40
2023-02-08T22:29:38.156Z,-0.50
2023-02-08T22:32:09.912Z,-0.50
2023-02-08T22:34:39.987Z,-0.50
2023-02-08T22:37:06.845Z,-0.50
2023-02-08T22:39:38.324Z,-0.50
2023-02-08T22:42:08.981Z,-0.50
2023-02-08T22:44:39.128Z,-0.50
2023-02-08T22:47:12.787Z,-0.50
2023-02-08T22:49:44.562Z,-0.60
2023-02-08T22:52:11.936Z,-0.60
2023-02-08T22:54:43.438Z,-0.60
2023-02-08T22:57:11.116Z,-0.60
2023-02-08T22:59:38.739Z,-0.60
2023-02-08T23:02:09.690Z,-0.60
2023-02-08T23:04:38.336Z,-0.60
2023-02-08T23:07:05.772Z,-0.60
2023-02-08T23:09:32.632Z,-0.60
2023-02-08T23:11:59.470Z,-0.70
2023-02-08T23:14:26.372Z,-0.70
2023-02-08T23:16:53.216Z,-0.70
2023-02-08T23:19:22.418Z,-0.70
2023-02-08T23:21:49.271Z,-0.80
2023-02-08T23:24:16.159Z,-0.80
2023-02-08T23:26:42.991Z,-0.70
2023-02-08T23:29:09.885Z,-0.80
2023-02-08T23:31:40.554Z,-0.80
2023-02-08T23:34:07.389Z,-0.80
2023-02-08T23:36:36.652Z,-0.80
2023-02-08T23:39:06.266Z,-0.80
2023-02-08T23:41:33.357Z,-0.80
2023-02-08T23:44:00.185Z,-0.80
2023-02-08T23:46:28.380Z,-0.80
2023-02-08T23:48:55.900Z,-0.80
2023-02-08T23:51:28.490Z,-0.80
2023-02-08T23:53:55.486Z,-0.90
2023-02-08T23:56:26.357Z,-0.90
2023-02-08T23:58:56.743Z,-0.90
